Time;durP1;ratioP1;P1;durP2;ratioP2;P2;SDS_P1;SDS_P2;PMS_P1;PMS_P2;Temp;Humidity;BMP_temperature;BMP_pressure;BME280_temperature;BME280_humidity;BME280_pressure;Samples;Min_cycle;Max_cycle;Signal;HPM_P1;HPM_P2
2021/08/04 00:01:09;;;;;;;14.30;3.65;;;;;;;32.27;26.46;100580.72;5055161;28;20059;-70
2021/08/04 00:03:38;;;;;;;15.77;4.30;;;;;;;32.27;26.38;100578.00;5061064;28;20045;-70
2021/08/04 00:06:05;;;;;;;14.43;3.53;;;;;;;32.22;26.42;100577.47;5068279;28;20047;-69
2021/08/04 00:08:32;;;;;;;16.38;3.88;;;;;;;32.13;26.88;100571.81;5066166;28;20045;-70
2021/08/04 00:11:00;;;;;;;16.75;3.50;;;;;;;32.10;26.68;100581.09;5067823;28;20043;-69
2021/08/04 00:13:27;;;;;;;13.32;3.60;;;;;;;32.13;26.64;100583.63;5058048;28;20048;-70
2021/08/04 00:15:55;;;;;;;12.20;4.15;;;;;;;32.17;27.06;100574.22;5061724;28;20091;-69
2021/08/04 00:18:22;;;;;;;16.85;3.90;;;;;;;32.14;26.94;100587.25;5067891;28;20051;-67
2021/08/04 00:20:51;;;;;;;13.82;4.30;;;;;;;32.12;27.06;100587.34;5066520;28;20040;-69
2021/08/04 00:23:19;;;;;;;14.30;4.63;;;;;;;32.10;26.82;100583.84;5066743;28;20052;-70
2021/08/04 00:25:46;;;;;;;16.70;3.88;;;;;;;32.07;27.07;100581.34;5065673;28;20032;-69
2021/08/04 00:28:14;;;;;;;13.20;3.90;;;;;;;32.05;27.06;100588.78;5061841;28;20044;-70
2021/08/04 00:30:41;;;;;;;18.08;4.28;;;;;;;32.02;27.32;100583.56;5063278;28;20044;-69
2021/08/04 00:33:08;;;;;;;26.40;4.60;;;;;;;32.07;27.07;100586.81;5066410;28;20052;-70
2021/08/04 00:35:36;;;;;;;23.30;5.82;;;;;;;32.09;27.39;100584.84;5067467;28;20041;-69
2021/08/04 00:38:10;;;;;;;16.25;4.53;;;;;;;32.04;27.18;100579.72;5063771;28;20045;-69
2021/08/04 00:40:37;;;;;;;17.13;3.80;;;;;;;32.06;27.23;100580.47;5065206;28;20493;-69
2021/08/04 00:43:06;;;;;;;17.38;4.75;;;;;;;32.02;27.42;100581.72;5067743;28;20048;-69
2021/08/04 00:45:34;;;;;;;11.75;4.25;;;;;;;31.96;27.72;100578.59;5068396;28;20046;-69
2021/08/04 00:48:01;;;;;;;15.40;3.72;;;;;;;31.90;27.88;100570.88;5063845;28;20052;-69
2021/08/04 00:50:29;;;;;;;20.90;6.55;;;;;;;32.00;27.98;100575.50;5064174;28;20044;-69
2021/08/04 00:52:56;;;;;;;12.00;4.00;;;;;;;32.06;27.68;100579.59;5066059;28;20071;-69
2021/08/04 00:55:27;;;;;;;14.75;3.88;;;;;;;32.05;28.13;100573.28;5066388;28;20127;-68
2021/08/04 00:57:54;;;;;;;17.95;4.53;;;;;;;31.97;28.33;100574.84;5065840;28;20032;-69
2021/08/04 01:00:21;;;;;;;21.25;4.65;;;;;;;31.95;28.44;100576.84;5066199;28;20040;-70
2021/08/04 01:02:58;;;;;;;13.45;4.30;;;;;;;31.92;28.23;100582.50;5068968;28;20516;-70
2021/08/04 01:05:33;;;;;;;16.10;4.70;;;;;;;31.84;28.59;100574.03;5060386;28;20045;-70
2021/08/04 01:08:05;;;;;;;18.75;4.50;;;;;;;31.77;28.86;100567.31;5070544;28;20401;-70
2021/08/04 01:10:38;;;;;;;17.75;4.03;;;;;;;31.73;28.74;100563.06;5070554;28;20045;-70
2021/08/04 01:13:11;;;;;;;20.15;4.28;;;;;;;31.65;29.07;100566.34;5066404;28;20036;-70
2021/08/04 01:15:45;;;;;;;15.80;4.68;;;;;;;31.55;29.29;100576.22;5070714;28;20040;-69
2021/08/04 01:18:17;;;;;;;16.38;4.28;;;;;;;31.58;29.22;100567.78;5065333;28;24061;-70
2021/08/04 01:20:45;;;;;;;16.35;4.90;;;;;;;31.67;28.84;100568.00;5064062;28;20421;-70
2021/08/04 01:23:18;;;;;;;12.73;4.20;;;;;;;31.76;28.73;100571.91;5060193;28;20064;-70
2021/08/04 01:25:53;;;;;;;16.38;4.50;;;;;;;31.71;28.84;100582.28;5066042;28;20494;-70
2021/08/04 01:28:27;;;;;;;20.67;5.18;;;;;;;31.70;28.73;100585.16;5077154;28;20405;-69
2021/08/04 01:31:00;;;;;;;14.68;4.60;;;;;;;31.59;28.85;100573.16;5070028;28;20069;-67
2021/08/04 01:33:29;;;;;;;13.43;4.30;;;;;;;31.64;28.80;100579.13;5065168;28;20045;-69
2021/08/04 01:35:57;;;;;;;17.35;4.25;;;;;;;31.67;28.56;100578.03;5063318;28;20048;-70
2021/08/04 01:38:26;;;;;;;22.92;4.68;;;;;;;31.62;28.85;100577.53;5070483;28;20418;-69
2021/08/04 01:40:56;;;;;;;14.85;4.28;;;;;;;31.61;28.88;100584.84;5069753;28;20068;-67
2021/08/04 01:43:26;;;;;;;23.05;5.03;;;;;;;31.52;29.27;100584.59;5071637;28;20071;-68
2021/08/04 01:45:56;;;;;;;13.70;3.75;;;;;;;31.50;29.52;100592.06;5068381;28;20048;-69
2021/08/04 01:48:24;;;;;;;19.17;4.88;;;;;;;31.44;29.71;100598.81;5072079;28;20052;-67
2021/08/04 01:50:54;;;;;;;21.33;4.50;;;;;;;31.48;29.69;100603.09;5068383;28;20041;-70
2021/08/04 01:53:23;;;;;;;16.10;4.13;;;;;;;31.46;29.78;100604.16;5077500;28;20124;-69
2021/08/04 01:55:50;;;;;;;14.07;4.93;;;;;;;31.44;29.97;100615.19;5058078;28;20077;-69
2021/08/04 01:58:18;;;;;;;18.88;4.28;;;;;;;31.48;29.79;100615.84;5069552;28;20045;-69
2021/08/04 02:00:47;;;;;;;12.73;4.05;;;;;;;31.50;29.68;100631.16;5066912;28;20041;-69
2021/08/04 02:03:14;;;;;;;16.02;4.05;;;;;;;31.52;29.76;100629.16;5064679;28;20045;-70
2021/08/04 02:05:41;;;;;;;16.90;4.70;;;;;;;31.54;29.47;100621.75;5071384;28;20036;-69
2021/08/04 02:08:21;;;;;;;17.40;4.88;;;;;;;31.53;29.68;100624.56;5070683;28;20052;-70
2021/08/04 02:10:55;;;;;;;16.00;4.72;;;;;;;31.55;29.55;100623.50;5067887;28;20040;-70
2021/08/04 02:13:31;;;;;;;14.10;4.40;;;;;;;31.42;30.02;100629.97;5067632;28;20059;-69
2021/08/04 02:16:14;;;;;;;14.35;4.50;;;;;;;31.39;29.83;100633.78;5068361;28;20047;-69
2021/08/04 02:18:47;;;;;;;16.27;4.50;;;;;;;31.40;30.18;100637.38;5069745;28;20041;-70
2021/08/04 02:21:17;;;;;;;13.73;3.78;;;;;;;31.35;30.24;100636.84;5064054;28;20102;-69
2021/08/04 02:23:47;;;;;;;14.45;4.30;;;;;;;31.34;30.27;100644.16;5069452;28;20045;-70
2021/08/04 02:26:16;;;;;;;13.68;4.13;;;;;;;31.35;30.48;100654.09;5062185;28;20041;-69
2021/08/04 02:28:47;;;;;;;15.60;5.03;;;;;;;31.36;30.51;100653.13;5060864;28;20052;-69
2021/08/04 02:31:18;;;;;;;21.25;4.85;;;;;;;31.25;30.78;100664.78;5056765;28;20048;-70
2021/08/04 02:33:46;;;;;;;16.48;4.10;;;;;;;31.24;30.93;100659.47;5070184;28;20041;-70
2021/08/04 02:36:16;;;;;;;19.40;4.88;;;;;;;31.25;31.09;100670.25;5070700;28;20535;-70
2021/08/04 02:38:45;;;;;;;14.15;4.85;;;;;;;31.25;31.12;100666.66;5070046;28;20056;-69
2021/08/04 02:41:13;;;;;;;19.60;3.75;;;;;;;31.18;31.04;100666.22;5040305;28;20028;-70
2021/08/04 02:43:41;;;;;;;21.60;5.10;;;;;;;31.14;31.06;100674.72;5070172;28;20064;-69
2021/08/04 02:46:09;;;;;;;20.00;3.90;;;;;;;31.13;31.24;100675.72;5068625;28;20102;-69
2021/08/04 02:48:39;;;;;;;19.08;4.35;;;;;;;31.13;31.25;100686.63;5069581;28;20499;-69
2021/08/04 02:51:13;;;;;;;22.50;5.13;;;;;;;31.10;31.58;100690.47;5065399;28;20043;-68
2021/08/04 02:53:40;;;;;;;;;;;;;;;31.03;31.44;100686.38;5078292;28;20179;-70
2021/08/04 02:56:08;;;;;;;16.20;4.90;;;;;;;30.97;31.78;100688.69;5068690;28;20297;-69
2021/08/04 02:58:38;;;;;;;18.60;4.40;;;;;;;30.96;32.30;100695.09;5065484;28;20401;-69
2021/08/04 03:01:07;;;;;;;18.90;4.03;;;;;;;30.97;32.26;100688.69;5051009;28;20041;-69
2021/08/04 03:03:35;;;;;;;20.42;5.28;;;;;;;30.94;32.34;100697.94;5077243;28;20040;-69
2021/08/04 03:06:04;;;;;;;15.68;4.18;;;;;;;30.97;32.55;100696.84;5068979;28;20047;-70
2021/08/04 03:08:32;;;;;;;19.30;4.55;;;;;;;30.95;32.80;100701.53;5067383;28;20041;-69
2021/08/04 03:10:59;;;;;;;15.63;4.25;;;;;;;31.01;32.71;100685.63;5068727;28;20067;-69
2021/08/04 03:13:27;;;;;;;16.25;5.10;;;;;;;31.00;32.58;100704.81;5076561;28;20048;-68
2021/08/04 03:15:55;;;;;;;14.48;4.13;;;;;;;30.97;32.71;100688.69;5064025;28;20506;-68
2021/08/04 03:18:23;;;;;;;20.85;4.30;;;;;;;30.96;32.95;100697.84;5067605;28;20047;-69
2021/08/04 03:20:50;;;;;;;17.80;4.82;;;;;;;30.93;33.28;100698.03;5063724;28;20047;-70
2021/08/04 03:23:19;;;;;;;18.20;4.72;;;;;;;30.94;32.94;100697.94;5068579;28;20040;-70
2021/08/04 03:25:46;;;;;;;17.65;4.82;;;;;;;30.87;33.14;100697.50;5065329;28;20040;-70
2021/08/04 03:28:14;;;;;;;16.13;3.92;;;;;;;30.83;33.33;100703.28;5062319;28;20702;-70
2021/08/04 03:30:42;;;;;;;20.23;3.80;;;;;;;30.83;33.31;100695.09;5068911;28;20067;-70
2021/08/04 03:33:10;;;;;;;15.75;4.35;;;;;;;30.81;33.32;100691.59;5068074;28;20048;-70
2021/08/04 03:35:38;;;;;;;16.92;4.72;;;;;;;30.81;33.27;100697.91;5067237;28;20172;-69
2021/08/04 03:38:05;;;;;;;15.10;4.88;;;;;;;30.77;33.36;100695.53;5066517;28;20047;-69
2021/08/04 03:40:35;;;;;;;18.20;4.47;;;;;;;30.77;33.48;100690.06;5063749;28;20513;-69
2021/08/04 03:43:02;;;;;;;15.52;4.30;;;;;;;30.76;33.48;100701.94;5043064;28;20050;-69
2021/08/04 03:45:29;;;;;;;15.25;4.75;;;;;;;30.75;33.42;100705.66;5071548;28;20040;-68
2021/08/04 03:47:57;;;;;;;17.40;4.50;;;;;;;30.78;33.60;100705.47;5059481;28;20041;-68
2021/08/04 03:50:24;;;;;;;16.25;4.65;;;;;;;30.81;33.67;100708.81;5062194;28;20049;-67
2021/08/04 03:52:52;;;;;;;13.88;4.72;;;;;;;30.86;33.55;100713.94;5067240;28;20047;-68
2021/08/04 03:55:19;;;;;;;16.15;4.60;;;;;;;30.87;33.70;100705.66;5067960;28;20044;-68
2021/08/04 03:57:48;;;;;;;14.27;4.55;;;;;;;30.88;33.91;100709.28;5068789;28;20072;-69
2021/08/04 04:00:16;;;;;;;13.82;4.40;;;;;;;30.93;33.63;100706.22;5058500;28;20848;-69
2021/08/04 04:02:43;;;;;;;18.15;4.30;;;;;;;30.96;33.86;100711.47;5066424;28;20032;-69
2021/08/04 04:05:11;;;;;;;17.20;4.25;;;;;;;31.07;33.97;100723.41;5065899;28;20036;-69
2021/08/04 04:07:40;;;;;;;12.75;4.43;;;;;;;31.11;33.88;100710.44;5068266;28;20044;-69
2021/08/04 04:10:08;;;;;;;17.60;4.15;;;;;;;31.20;33.69;100718.81;5066146;28;20056;-69
2021/08/04 04:12:36;;;;;;;15.35;4.35;;;;;;;31.27;33.69;100717.41;5072940;28;20041;-69
2021/08/04 04:15:06;;;;;;;13.82;4.10;;;;;;;31.33;33.37;100713.38;5067480;28;20047;-70
2021/08/04 04:17:33;;;;;;;14.63;4.05;;;;;;;31.49;33.32;100715.88;5063583;28;20040;-69
2021/08/04 04:20:01;;;;;;;19.33;5.93;;;;;;;31.63;33.29;100716.66;5066165;28;20044;-70
2021/08/04 04:22:28;;;;;;;17.20;5.28;;;;;;;31.75;33.04;100714.88;5067029;28;20046;-69
2021/08/04 04:24:55;;;;;;;13.10;3.90;;;;;;;31.94;32.43;100712.53;5066396;28;20049;-68
2021/08/04 04:27:23;;;;;;;14.45;4.47;;;;;;;32.14;32.29;100719.28;5063151;28;20448;-69
2021/08/04 04:29:50;;;;;;;15.25;4.47;;;;;;;32.27;32.23;100721.97;5053896;28;20076;-69
2021/08/04 04:32:19;;;;;;;16.40;4.53;;;;;;;32.42;32.47;100721.69;5058115;28;20040;-70
2021/08/04 04:34:46;;;;;;;12.85;5.13;;;;;;;32.57;31.99;100718.75;5063403;28;20056;-70
2021/08/04 04:37:13;;;;;;;14.38;4.43;;;;;;;32.75;31.74;100723.72;5068210;28;20037;-69
2021/08/04 04:39:41;;;;;;;15.75;4.95;;;;;;;32.92;31.77;100729.72;5067024;28;20067;-70
2021/08/04 04:42:08;;;;;;;19.50;4.18;;;;;;;33.12;31.50;100735.38;5068212;28;20048;-69
2021/08/04 04:44:35;;;;;;;14.05;4.53;;;;;;;33.29;30.90;100730.44;5067919;28;20037;-70
2021/08/04 04:47:02;;;;;;;15.52;4.50;;;;;;;33.43;30.85;100731.09;5066227;28;20870;-70
2021/08/04 04:49:31;;;;;;;10.95;3.75;;;;;;;33.65;30.52;100732.09;5065964;28;20056;-69
2021/08/04 04:51:59;;;;;;;18.13;4.45;;;;;;;33.76;30.84;100730.28;5060534;28;20045;-69
2021/08/04 04:54:26;;;;;;;16.00;4.35;;;;;;;33.94;30.43;100728.75;5065209;28;20051;-68
2021/08/04 04:56:53;;;;;;;11.05;3.80;;;;;;;34.15;29.99;100725.22;5066596;28;20052;-69
2021/08/04 04:59:21;;;;;;;14.98;3.90;;;;;;;34.32;29.50;100725.59;5067473;28;20051;-69
2021/08/04 05:01:48;;;;;;;12.57;4.35;;;;;;;34.49;29.47;100737.00;5058857;28;20067;-70
2021/08/04 05:04:16;;;;;;;19.00;4.05;;;;;;;34.67;29.65;100727.19;5067405;28;20541;-70
2021/08/04 05:06:45;;;;;;;14.13;4.00;;;;;;;34.85;29.00;100735.78;5070684;28;20040;-70
2021/08/04 05:09:12;;;;;;;17.52;4.20;;;;;;;34.94;28.38;100738.56;5059856;28;20048;-70
2021/08/04 05:11:39;;;;;;;16.05;4.10;;;;;;;35.09;28.12;100734.50;5066467;28;20041;-70
2021/08/04 05:14:07;;;;;;;14.50;4.05;;;;;;;35.28;28.18;100738.41;5067819;28;20525;-69
2021/08/04 05:16:34;;;;;;;17.67;4.30;;;;;;;35.50;27.94;100736.38;5067556;28;20048;-69
2021/08/04 05:19:01;;;;;;;13.68;4.10;;;;;;;35.73;27.54;100738.97;5064735;28;20046;-69
2021/08/04 05:21:28;;;;;;;15.20;4.15;;;;;;;35.93;27.15;100740.78;5067629;28;20049;-69
2021/08/04 05:23:57;;;;;;;11.85;3.63;;;;;;;36.22;26.92;100730.78;5058744;28;20131;-68
2021/08/04 05:26:25;;;;;;;17.63;4.93;;;;;;;36.41;26.43;100740.06;5063734;28;20044;-69
2021/08/04 05:28:52;;;;;;;13.77;4.45;;;;;;;36.53;25.81;100737.03;5064816;28;20064;-69
2021/08/04 05:31:20;;;;;;;13.85;4.38;;;;;;;36.74;25.67;100725.91;5065122;28;20041;-69
2021/08/04 05:33:48;;;;;;;15.45;4.30;;;;;;;36.94;25.79;100727.66;5061808;28;20039;-69
2021/08/04 05:36:15;;;;;;;16.63;3.78;;;;;;;37.20;25.53;100733.44;5065397;28;20406;-69
2021/08/04 05:38:43;;;;;;;16.17;4.30;;;;;;;37.43;25.07;100734.81;5065292;28;20056;-69
2021/08/04 05:41:11;;;;;;;16.10;3.90;;;;;;;37.65;24.46;100735.50;5045621;28;20064;-69
2021/08/04 05:43:39;;;;;;;14.52;3.53;;;;;;;37.76;24.18;100733.41;5063006;28;20045;-69
2021/08/04 05:46:06;;;;;;;21.67;5.05;;;;;;;38.03;24.05;100738.09;5065742;28;20045;-69
2021/08/04 05:48:33;;;;;;;14.32;4.10;;;;;;;38.10;23.65;100738.34;5066163;28;20055;-69
2021/08/04 05:51:01;;;;;;;15.82;4.10;;;;;;;38.32;nan;100740.69;5069715;28;20413;-70
2021/08/04 05:53:28;;;;;;;11.80;3.65;;;;;;;38.51;23.25;100740.56;5071187;28;20115;-69
2021/08/04 05:55:55;;;;;;;15.85;3.83;;;;;;;38.73;23.05;100744.75;5069995;28;20489;-67
2021/08/04 05:58:24;;;;;;;13.55;3.88;;;;;;;38.86;22.45;100741.59;5065681;28;20059;-70
2021/08/04 06:00:53;;;;;;;15.00;3.75;;;;;;;38.85;21.69;100735.22;5064684;28;20040;-69
2021/08/04 06:03:21;;;;;;;13.52;3.67;;;;;;;39.02;22.10;100737.09;5071153;28;20037;-69
2021/08/04 06:05:48;;;;;;;13.57;4.30;;;;;;;39.18;21.61;100741.03;5068972;28;20051;-70
2021/08/04 06:08:15;;;;;;;12.73;4.60;;;;;;;39.27;21.49;100742.81;5073408;28;22015;-69
2021/08/04 06:10:43;;;;;;;11.18;4.10;;;;;;;39.47;21.46;100752.66;5065786;28;20043;-70
2021/08/04 06:13:10;;;;;;;9.75;3.47;;;;;;;39.53;21.10;100762.19;5068252;28;20041;-69
2021/08/04 06:15:39;;;;;;;10.60;3.75;;;;;;;39.60;21.27;100758.59;5062477;28;20041;-70
2021/08/04 06:18:06;;;;;;;12.43;3.83;;;;;;;39.71;21.05;100750.06;5060742;28;20059;-70
2021/08/04 06:20:33;;;;;;;11.27;3.60;;;;;;;39.79;21.21;100751.97;5064896;28;20729;-70
2021/08/04 06:23:01;;;;;;;16.05;3.95;;;;;;;39.96;20.83;100764.91;5069387;28;20049;-68
2021/08/04 06:25:29;;;;;;;15.25;3.75;;;;;;;40.13;20.93;100758.38;5064056;28;20092;-69
2021/08/04 06:27:56;;;;;;;15.32;3.78;;;;;;;40.13;20.92;100755.63;5068767;28;20801;-68
2021/08/04 06:30:23;;;;;;;12.63;3.92;;;;;;;40.19;20.58;100754.94;5069560;28;20056;-70
2021/08/04 06:32:52;;;;;;;16.85;4.18;;;;;;;40.18;20.46;100757.88;5069071;28;20097;-70
2021/08/04 06:35:20;;;;;;;14.55;4.13;;;;;;;40.29;20.16;100765.03;5062730;28;20044;-67
2021/08/04 06:37:47;;;;;;;12.10;3.80;;;;;;;40.26;20.22;100762.59;5063074;28;20028;-69
2021/08/04 06:40:15;;;;;;;13.68;3.55;;;;;;;40.29;19.94;100753.97;5058015;28;20041;-69
2021/08/04 06:42:42;;;;;;;14.60;4.65;;;;;;;40.44;19.86;100755.03;5064705;28;20048;-69
2021/08/04 06:45:11;;;;;;;10.60;3.53;;;;;;;40.52;19.69;100763.38;5058003;28;20045;-70
2021/08/04 06:47:38;;;;;;;16.15;4.50;;;;;;;40.60;19.88;100764.25;5061334;28;20041;-70
2021/08/04 06:50:08;;;;;;;15.95;3.72;;;;;;;40.72;20.05;100764.81;5068715;28;20071;-69
2021/08/04 06:52:35;;;;;;;12.75;3.80;;;;;;;40.76;19.59;100765.34;5070711;28;20045;-69
2021/08/04 06:55:03;;;;;;;10.77;3.67;;;;;;;40.78;19.56;100768.81;5068854;28;20084;-68
2021/08/04 06:57:30;;;;;;;14.10;3.83;;;;;;;40.79;19.55;100760.31;5063049;28;20044;-69
2021/08/04 06:59:58;;;;;;;17.70;4.22;;;;;;;40.82;19.64;100770.22;5061459;28;20051;-68
2021/08/04 07:02:25;;;;;;;14.07;3.78;;;;;;;40.84;19.54;100771.75;5069135;28;20040;-69
2021/08/04 07:04:52;;;;;;;12.38;4.05;;;;;;;40.88;19.67;100772.28;5065748;28;20047;-69
2021/08/04 07:07:21;;;;;;;12.57;3.90;;;;;;;40.99;19.59;100783.88;5063751;28;20041;-69
2021/08/04 07:09:48;;;;;;;13.02;3.83;;;;;;;41.08;19.39;100782.03;5067786;28;20040;-69
2021/08/04 07:12:16;;;;;;;13.88;3.70;;;;;;;40.95;19.21;100776.97;5066589;28;20849;-69
2021/08/04 07:14:44;;;;;;;13.50;4.47;;;;;;;40.69;19.29;100781.78;5068180;28;20028;-68
2021/08/04 07:17:11;;;;;;;11.13;4.10;;;;;;;40.64;19.48;100778.63;5067949;28;20048;-69
2021/08/04 07:19:39;;;;;;;14.05;4.05;;;;;;;40.70;19.39;100780.72;5068225;28;20063;-69
2021/08/04 07:22:06;;;;;;;17.27;4.50;;;;;;;40.86;19.41;100778.00;5067976;28;20065;-68
2021/08/04 07:24:35;;;;;;;11.13;4.03;;;;;;;41.08;19.51;100793.13;5066833;28;20048;-67
2021/08/04 07:27:03;;;;;;;15.68;4.13;;;;;;;41.09;19.36;100797.63;5068421;28;20525;-69
2021/08/04 07:29:30;;;;;;;13.38;3.58;;;;;;;41.23;19.50;100794.13;5060370;28;20043;-68
2021/08/04 07:31:58;;;;;;;16.27;4.13;;;;;;;41.30;19.33;100791.53;5069229;28;20040;-68
2021/08/04 07:34:25;;;;;;;13.13;4.53;;;;;;;41.35;19.16;100798.31;5062169;28;20055;-69
2021/08/04 07:36:53;;;;;;;14.48;4.50;;;;;;;41.36;19.20;100801.91;5066621;28;20565;-69
2021/08/04 07:39:21;;;;;;;11.93;4.18;;;;;;;41.40;19.17;100806.09;5067196;28;20048;-69
2021/08/04 07:41:50;;;;;;;16.88;4.07;;;;;;;41.48;19.57;100810.78;5067851;28;20043;-69
2021/08/04 07:44:17;;;;;;;17.27;4.45;;;;;;;41.55;19.38;100803.50;5065692;28;20375;-69
2021/08/04 07:46:47;;;;;;;15.60;4.43;;;;;;;41.45;19.29;100806.44;5067881;28;20048;-69
2021/08/04 07:49:15;;;;;;;14.70;3.90;;;;;;;41.40;19.21;100814.41;5064968;28;20043;-69
2021/08/04 07:51:42;;;;;;;10.32;4.38;;;;;;;41.47;19.27;100804.34;5059769;28;20048;-69
2021/08/04 07:54:09;;;;;;;16.35;4.22;;;;;;;41.18;19.33;100807.66;5069255;28;20044;-69
2021/08/04 07:56:36;;;;;;;14.55;4.25;;;;;;;41.35;19.24;100808.53;5067654;28;20048;-69
2021/08/04 07:59:06;;;;;;;13.27;4.10;;;;;;;41.56;19.14;100808.84;5067314;28;20044;-69
2021/08/04 08:01:33;;;;;;;12.07;3.80;;;;;;;41.67;19.29;100814.06;5066609;28;20106;-69
2021/08/04 08:04:00;;;;;;;10.70;3.70;;;;;;;41.85;18.94;100816.59;5068153;28;20040;-69
2021/08/04 08:06:28;;;;;;;11.68;3.83;;;;;;;41.88;18.86;100821.78;5066126;28;20051;-68
2021/08/04 08:08:55;;;;;;;12.85;4.03;;;;;;;41.99;18.91;100831.69;5069052;28;20044;-69
2021/08/04 08:11:23;;;;;;;14.88;4.28;;;;;;;42.10;18.57;100817.44;5074282;28;20040;-68
2021/08/04 08:13:50;;;;;;;14.27;4.53;;;;;;;42.14;18.45;100822.44;5066208;28;20043;-69
2021/08/04 08:16:19;;;;;;;18.17;4.43;;;;;;;42.16;18.72;100817.56;5067649;28;20037;-69
2021/08/04 08:18:46;;;;;;;11.85;3.88;;;;;;;42.18;18.83;100814.63;5067545;28;20040;-69
2021/08/04 08:21:14;;;;;;;11.02;4.38;;;;;;;42.13;18.75;100814.31;5061070;28;20036;-69
2021/08/04 08:23:41;;;;;;;15.40;3.83;;;;;;;42.19;18.69;100818.25;5069011;28;20494;-68
2021/08/04 08:26:08;;;;;;;14.23;4.05;;;;;;;42.39;18.74;100823.25;5067031;28;20032;-69
2021/08/04 08:28:36;;;;;;;15.35;4.13;;;;;;;42.64;18.81;100823.09;5062596;28;20052;-69
2021/08/04 08:31:03;;;;;;;15.02;4.60;;;;;;;42.57;18.40;100817.41;5067247;28;20051;-69
2021/08/04 08:33:32;;;;;;;16.58;4.20;;;;;;;42.47;18.44;100816.78;5050854;28;20052;-68
2021/08/04 08:35:59;;;;;;;13.63;4.10;;;;;;;42.51;18.44;100815.34;5068107;28;20047;-68
2021/08/04 08:38:27;;;;;;;14.68;5.32;;;;;;;42.35;18.34;100813.53;5069134;28;20041;-67
2021/08/04 08:40:55;;;;;;;11.77;3.70;;;;;;;42.47;18.23;100814.84;5066677;28;20043;-69
2021/08/04 08:43:22;;;;;;;18.05;4.00;;;;;;;42.57;18.49;100808.19;5068532;28;20048;-69
2021/08/04 08:45:52;;;;;;;14.32;4.25;;;;;;;42.64;18.61;100815.63;5065734;28;20037;-70
2021/08/04 08:48:20;;;;;;;13.20;3.65;;;;;;;42.49;18.58;100812.75;5066350;28;20460;-69
2021/08/04 08:50:50;;;;;;;16.33;4.10;;;;;;;42.57;18.26;100806.28;5063973;28;20556;-68
2021/08/04 08:53:20;;;;;;;14.48;5.28;;;;;;;42.46;18.36;100803.94;5068849;28;20063;-69
2021/08/04 08:55:47;;;;;;;17.33;4.05;;;;;;;42.66;18.39;100801.56;5064061;28;20076;-69
2021/08/04 08:58:15;;;;;;;8.75;3.95;;;;;;;42.83;18.08;100798.50;5061841;28;20052;-69
2021/08/04 09:00:42;;;;;;;16.20;4.63;;;;;;;42.92;17.52;100804.88;5069058;28;20041;-70
2021/08/04 09:03:10;;;;;;;13.50;4.47;;;;;;;42.97;17.53;100794.06;5067083;28;20048;-69
2021/08/04 09:05:53;;;;;;;8.15;3.65;;;;;;;42.61;17.75;100793.75;5066792;28;20521;-69
2021/08/04 09:08:25;;;;;;;17.50;4.97;;;;;;;42.54;17.81;100793.63;5061563;28;20048;-69
2021/08/04 09:10:52;;;;;;;13.33;3.70;;;;;;;42.69;17.78;100798.41;5063728;28;20043;-69
2021/08/04 09:13:31;;;;;;;13.07;4.45;;;;;;;42.77;17.72;100803.94;5066480;28;20052;-69
2021/08/04 09:16:05;;;;;;;15.25;4.75;;;;;;;42.57;17.92;100805.44;5059320;28;20047;-68
2021/08/04 09:18:40;;;;;;;11.50;4.13;;;;;;;42.44;17.84;100795.78;5065072;28;20410;-68
2021/08/04 09:21:10;;;;;;;18.38;4.20;;;;;;;42.51;17.78;100802.34;5067131;28;20044;-69
2021/08/04 09:23:43;;;;;;;15.43;4.68;;;;;;;42.50;17.75;100792.28;5060091;28;20044;-69
2021/08/04 09:26:11;;;;;;;16.05;3.92;;;;;;;42.39;18.02;100778.81;5070703;28;20489;-69
2021/08/04 09:28:57;;;;;;;14.02;3.97;;;;;;;42.60;17.63;100786.50;5070362;28;20044;-69
2021/08/04 09:31:46;;;;;;;13.68;4.60;;;;;;;42.19;17.86;100783.03;5058569;28;20094;-69
2021/08/04 09:34:44;;;;;;;13.35;4.68;;;;;;;42.03;18.30;100783.09;5059455;28;20094;-69
2021/08/04 09:37:16;;;;;;;13.90;4.80;;;;;;;42.26;17.99;100784.06;4989275;28;20053;-69
2021/08/04 09:39:46;;;;;;;15.73;3.80;;;;;;;42.05;17.60;100778.25;5053173;28;20045;-69
2021/08/04 09:42:14;;;;;;;10.38;4.57;;;;;;;42.05;17.87;100783.78;5070989;28;20474;-69
2021/08/04 09:44:53;;;;;;;14.00;4.35;;;;;;;42.36;17.79;100787.50;5070171;28;20040;-68
2021/08/04 09:47:21;;;;;;;15.25;4.25;;;;;;;42.36;17.64;100778.28;5066373;28;20044;-69
2021/08/04 09:49:55;;;;;;;10.63;4.03;;;;;;;42.57;17.47;100785.97;5065971;28;20056;-70
2021/08/04 09:52:24;;;;;;;10.25;4.28;;;;;;;42.74;17.11;100784.84;5066912;28;20044;-69
2021/08/04 09:54:52;;;;;;;11.95;4.00;;;;;;;42.51;17.51;100782.03;5063796;28;20064;-68
2021/08/04 09:57:20;;;;;;;14.65;3.95;;;;;;;42.57;17.79;100788.75;5069311;28;20045;-69
2021/08/04 10:00:06;;;;;;;12.63;4.10;;;;;;;42.71;17.96;100790.75;5067849;28;20048;-69
2021/08/04 10:02:33;;;;;;;15.52;4.35;;;;;;;42.75;17.79;100786.56;5064543;28;20055;-69
2021/08/04 10:05:23;;;;;;;14.32;4.57;;;;;;;42.82;17.67;100785.66;5068626;28;20052;-68
2021/08/04 10:08:07;;;;;;;12.40;4.05;;;;;;;42.22;17.93;100791.00;5068466;28;20119;-69
2021/08/04 10:10:37;;;;;;;12.18;4.30;;;;;;;41.96;18.68;100788.50;5065898;28;20056;-69
2021/08/04 10:13:06;;;;;;;15.00;4.53;;;;;;;41.89;18.92;100775.47;5066139;28;20048;-69
2021/08/04 10:15:39;;;;;;;12.27;4.45;;;;;;;41.69;19.09;100789.75;5068251;28;20047;-69
2021/08/04 10:18:08;;;;;;;11.13;4.45;;;;;;;41.38;19.35;100788.75;5068467;28;20120;-69
2021/08/04 10:20:38;;;;;;;14.52;4.80;;;;;;;41.42;19.18;100786.50;5070789;28;20036;-69
2021/08/04 10:23:09;;;;;;;16.08;4.00;;;;;;;41.60;18.99;100779.75;5063237;28;20093;-68
2021/08/04 10:25:37;;;;;;;12.07;4.45;;;;;;;41.77;19.05;100775.88;5063492;28;20070;-69
2021/08/04 10:28:06;;;;;;;11.25;4.20;;;;;;;41.91;18.65;100782.63;5068165;28;20044;-67
2021/08/04 10:30:34;;;;;;;9.38;3.95;;;;;;;41.58;18.86;100776.28;5068761;28;20045;-69
2021/08/04 10:33:01;;;;;;;15.80;4.10;;;;;;;41.64;18.44;100770.03;5068556;28;20540;-69
2021/08/04 10:35:29;;;;;;;8.93;3.83;;;;;;;41.88;18.56;100768.22;5068142;28;20044;-68
2021/08/04 10:37:57;;;;;;;9.55;3.92;;;;;;;42.00;18.33;100762.13;5069040;28;20033;-69
2021/08/04 10:40:27;;;;;;;12.35;4.72;;;;;;;42.00;18.18;100773.25;5047199;28;20102;-69
2021/08/04 10:42:55;;;;;;;13.55;5.22;;;;;;;41.98;18.49;100772.53;5065094;28;20048;-70
2021/08/04 10:45:36;;;;;;;10.63;3.90;;;;;;;41.98;18.03;100774.44;5065813;28;20405;-70
2021/08/04 10:48:22;;;;;;;12.32;3.88;;;;;;;41.64;18.30;100770.03;5063597;28;20055;-69
2021/08/04 10:51:16;;;;;;;13.50;4.22;;;;;;;41.69;18.30;100775.03;5068538;28;20135;-71
2021/08/04 10:54:17;;;;;;;18.20;4.70;;;;;;;41.77;18.54;100770.31;5066028;28;20551;-71
2021/08/04 10:57:11;;;;;;;14.00;4.40;;;;;;;41.77;19.07;100770.31;5042078;28;20128;-71
2021/08/04 10:59:38;;;;;;;;;;;;;;;41.67;18.86;100761.34;5068807;28;20056;-71
2021/08/04 11:02:29;;;;;;;14.18;4.03;;;;;;;41.53;18.96;100767.63;5061752;28;19966;-70
2021/08/04 11:04:57;;;;;;;10.50;4.20;;;;;;;41.58;18.60;100759.63;5065467;28;20520;-69
2021/08/04 11:07:25;;;;;;;14.90;4.25;;;;;;;41.66;18.18;100761.53;5066251;28;20118;-69
2021/08/04 11:10:04;;;;;;;12.85;4.40;;;;;;;41.47;18.15;100768.31;5067174;28;20082;-69
2021/08/04 11:12:45;;;;;;;14.30;5.07;;;;;;;41.55;18.05;100757.19;5068480;28;20492;-68
2021/08/04 11:15:33;;;;;;;13.95;4.90;;;;;;;41.71;18.29;100759.94;5065432;28;20040;-70
2021/08/04 11:18:14;;;;;;;12.55;4.40;;;;;;;41.63;18.04;100754.41;5064626;28;20398;-70
2021/08/04 11:21:13;;;;;;;15.27;4.72;;;;;;;41.76;17.43;100746.41;5065264;28;20502;-69
2021/08/04 11:23:48;;;;;;;13.80;4.75;;;;;;;41.91;17.51;100741.00;5064360;28;20047;-69
2021/08/04 11:26:26;;;;;;;9.07;4.50;;;;;;;42.23;16.82;100744.66;5064697;28;20055;-69
2021/08/04 11:28:55;;;;;;;14.25;5.13;;;;;;;42.40;16.24;100740.78;5066003;28;20063;-69